Time;durP1;ratioP1;P1;durP2;ratioP2;P2;SDS_P1;SDS_P2;PMS_P1;PMS_P2;Temp;Humidity;BMP_temperature;BMP_pressure;BME280_temperature;BME280_humidity;BME280_pressure;Samples;Min_cycle;Max_cycle;Signal;HPM_P1;HPM_P2
2023/03/08 00:00:14;;;;;;;19.20;10.50;;;;;;;4.62;75.86;96227.87;105781;1255;60434;-77
2023/03/08 00:03:01;;;;;;;20.60;10.40;;;;;;;4.60;75.95;96239.84;105908;1254;72152;-77
2023/03/08 00:05:28;;;;;;;22.30;10.70;;;;;;;4.60;75.77;96246.12;106003;1260;71046;-77
2023/03/08 00:07:54;;;;;;;22.20;11.20;;;;;;;4.58;75.51;96245.05;105880;1258;60422;-77
2023/03/08 00:10:21;;;;;;;20.70;11.30;;;;;;;4.58;76.06;96243.35;105891;1254;60523;-77
2023/03/08 00:12:47;;;;;;;17.70;11.30;;;;;;;4.56;76.15;96244.51;105896;1254;60533;-77
2023/03/08 00:15:14;;;;;;;25.70;13.30;;;;;;;4.55;76.03;96242.75;106054;1254;60543;-77
2023/03/08 00:17:40;;;;;;;23.20;12.10;;;;;;;4.52;76.05;96243.14;105899;1257;60457;-77
2023/03/08 00:20:09;;;;;;;19.70;11.80;;;;;;;4.50;76.40;96241.27;106012;1254;60466;-77
2023/03/08 00:22:39;;;;;;;23.70;12.20;;;;;;;4.47;76.63;96243.14;105901;1255;60302;-77
2023/03/08 00:25:07;;;;;;;13.90;7.70;;;;;;;4.50;76.49;96238.27;106053;1254;60459;-77
2023/03/08 00:27:35;;;;;;;16.20;9.60;;;;;;;4.57;76.42;96239.83;105916;1254;73007;-77
2023/03/08 00:30:03;;;;;;;20.90;9.20;;;;;;;4.58;76.27;96246.66;105892;1254;71070;-77
2023/03/08 00:32:29;;;;;;;18.80;9.10;;;;;;;4.59;76.42;96242.38;105908;1258;71444;-77
2023/03/08 00:34:56;;;;;;;22.30;11.40;;;;;;;4.58;76.06;96246.62;105862;1257;60469;-77
2023/03/08 00:37:22;;;;;;;15.40;9.00;;;;;;;4.58;76.17;96251.02;105904;1254;60476;-77
2023/03/08 00:39:52;;;;;;;15.60;9.80;;;;;;;4.60;76.09;96246.97;105909;1255;60545;-76
2023/03/08 00:42:21;;;;;;;15.50;6.80;;;;;;;4.61;76.21;96245.61;105874;1254;71075;-77
2023/03/08 00:44:48;;;;;;;18.70;9.80;;;;;;;4.63;75.96;96236.59;105846;1256;72501;-77
2023/03/08 00:47:14;;;;;;;25.50;10.00;;;;;;;4.62;75.96;96239.83;105874;1260;60422;-77
2023/03/08 00:49:41;;;;;;;16.10;9.30;;;;;;;4.64;75.82;96241.04;105844;1259;59354;-77
2023/03/08 00:52:08;;;;;;;19.60;9.30;;;;;;;4.77;75.08;96238.63;105828;1256;73640;-79
2023/03/08 00:54:34;;;;;;;18.50;9.90;;;;;;;4.73;75.37;96238.42;105864;1260;70596;-78
2023/03/08 00:57:00;;;;;;;19.70;10.80;;;;;;;4.70;75.32;96234.73;105854;1256;60543;-78
2023/03/08 00:59:27;;;;;;;24.10;12.20;;;;;;;4.68;75.28;96235.50;105842;1256;61044;-77
2023/03/08 01:01:53;;;;;;;18.80;9.60;;;;;;;4.66;75.27;96239.35;105903;1256;60540;-77
2023/03/08 01:04:19;;;;;;;12.90;7.60;;;;;;;4.63;75.40;96247.53;105861;1256;60551;-77
2023/03/08 01:06:46;;;;;;;16.90;10.00;;;;;;;4.61;75.56;96249.76;105869;1256;60602;-77
2023/03/08 01:09:12;;;;;;;21.60;10.90;;;;;;;4.58;75.47;96248.98;105879;1256;60555;-77
2023/03/08 01:11:39;;;;;;;20.00;11.40;;;;;;;4.55;75.52;96246.86;105833;1256;60521;-77
2023/03/08 01:14:07;;;;;;;12.60;6.20;;;;;;;4.55;75.34;96244.63;105892;1256;60521;-77
2023/03/08 01:16:33;;;;;;;17.90;9.90;;;;;;;4.57;75.21;96241.65;105875;1257;72604;-77
2023/03/08 01:19:00;;;;;;;18.40;10.00;;;;;;;4.56;75.28;96244.94;105850;1256;60447;-77
2023/03/08 01:21:27;;;;;;;19.10;10.50;;;;;;;4.55;75.26;96248.97;105899;1260;73740;-77
2023/03/08 01:23:54;;;;;;;16.40;9.00;;;;;;;4.55;75.06;96247.89;105877;1255;60494;-77
2023/03/08 01:26:22;;;;;;;16.80;9.60;;;;;;;4.54;75.11;96251.30;105886;1258;60474;-77
2023/03/08 01:28:49;;;;;;;18.40;11.10;;;;;;;4.53;75.02;96247.86;105873;1257;73697;-77
2023/03/08 01:31:20;;;;;;;18.40;9.80;;;;;;;4.54;75.06;96245.96;105897;1255;71029;-77
2023/03/08 01:33:47;;;;;;;19.00;10.10;;;;;;;4.55;75.08;96245.48;105883;1256;71503;-77
2023/03/08 01:36:15;;;;;;;17.40;9.60;;;;;;;4.56;74.87;96232.80;105877;1256;60550;-78
2023/03/08 01:38:41;;;;;;;16.90;9.00;;;;;;;4.57;74.79;96227.85;105875;1256;60472;-77
2023/03/08 01:41:13;;;;;;;20.70;10.30;;;;;;;4.57;74.74;96221.68;105903;1256;73772;-77
2023/03/08 01:43:39;;;;;;;21.00;11.80;;;;;;;4.58;74.28;96231.44;105950;1256;71058;-77
2023/03/08 01:46:26;;;;;;;17.70;10.20;;;;;;;4.58;74.23;96229.55;105808;1256;60470;-77
2023/03/08 01:49:13;;;;;;;20.70;10.10;;;;;;;4.57;74.29;96233.76;105752;1256;139781;-77
2023/03/08 01:51:43;;;;;;;18.20;9.30;;;;;;;4.54;74.25;96233.04;105960;1256;60560;-77
2023/03/08 01:54:13;;;;;;;20.40;10.80;;;;;;;4.52;74.46;96234.11;105874;1256;73742;-77
2023/03/08 01:56:40;;;;;;;18.70;9.70;;;;;;;4.49;74.45;96238.83;105885;1260;69575;-77
2023/03/08 01:59:06;;;;;;;17.30;8.70;;;;;;;4.45;74.54;96242.09;105685;1263;71742;-77
2023/03/08 02:01:33;;;;;;;17.80;10.40;;;;;;;4.41;74.40;96242.33;105863;1260;60445;-77
2023/03/08 02:04:00;;;;;;;18.20;10.30;;;;;;;4.38;74.50;96245.96;105890;1256;60426;-77
2023/03/08 02:06:27;;;;;;;19.00;11.10;;;;;;;4.35;74.56;96252.25;105829;1256;71890;-77
2023/03/08 02:08:53;;;;;;;18.70;11.30;;;;;;;4.31;74.76;96253.20;105826;1258;69950;-77
2023/03/08 02:11:20;;;;;;;18.40;10.30;;;;;;;4.28;74.76;96254.59;105848;1256;60487;-78
2023/03/08 02:13:46;;;;;;;18.60;10.50;;;;;;;4.25;74.78;96258.20;105825;1256;61113;-78
2023/03/08 02:16:13;;;;;;;16.10;10.70;;;;;;;4.23;74.73;96260.15;105826;1260;60608;-77
2023/03/08 02:18:53;;;;;;;17.00;9.80;;;;;;;4.24;74.95;96259.59;105808;1260;60321;-77
2023/03/08 02:21:20;;;;;;;14.60;8.80;;;;;;;4.25;74.93;96262.27;105850;1260;71371;-77
2023/03/08 02:23:46;;;;;;;18.00;9.80;;;;;;;4.25;74.80;96260.75;105878;1256;71509;-78
2023/03/08 02:26:12;;;;;;;17.30;9.00;;;;;;;4.27;74.80;96258.06;105854;1259;60409;-78
2023/03/08 02:28:39;;;;;;;18.50;9.10;;;;;;;4.28;74.80;96259.45;105797;1260;60938;-78
2023/03/08 02:31:05;;;;;;;17.80;10.60;;;;;;;4.25;74.76;96261.25;105855;1260;60537;-78
2023/03/08 02:33:35;;;;;;;21.00;11.30;;;;;;;4.23;74.73;96259.77;105806;1256;61018;-78
2023/03/08 02:36:02;;;;;;;22.40;11.80;;;;;;;4.21;74.65;96256.63;105855;1256;72811;-78
2023/03/08 02:38:28;;;;;;;19.50;11.10;;;;;;;4.19;74.40;96257.13;105829;1256;60536;-77
2023/03/08 02:40:55;;;;;;;18.40;11.50;;;;;;;4.19;74.35;96257.77;105887;1259;60369;-77
2023/03/08 02:43:21;;;;;;;21.30;10.30;;;;;;;4.16;74.42;96257.52;105825;1258;60610;-79
2023/03/08 02:45:47;;;;;;;21.20;13.50;;;;;;;4.14;74.38;96260.49;105926;1258;60465;-77
2023/03/08 02:48:15;;;;;;;20.90;11.00;;;;;;;4.11;74.46;96264.23;105894;1257;60542;-77
2023/03/08 02:50:41;;;;;;;20.90;10.90;;;;;;;4.09;74.36;96263.36;105876;1254;60486;-77
2023/03/08 02:53:08;;;;;;;24.30;14.70;;;;;;;4.06;74.23;96259.00;105891;1254;60510;-77
2023/03/08 02:55:35;;;;;;;25.30;12.30;;;;;;;4.04;74.42;96259.71;105911;1256;60453;-78
2023/03/08 02:58:05;;;;;;;21.00;10.60;;;;;;;4.01;74.37;96258.66;105926;1258;70950;-77
2023/03/08 03:00:31;;;;;;;22.40;10.90;;;;;;;4.00;74.35;96255.29;105889;1254;71200;-77
2023/03/08 03:02:58;;;;;;;23.90;12.00;;;;;;;3.98;74.20;96255.26;105945;1254;60418;-77
2023/03/08 03:05:24;;;;;;;19.90;12.80;;;;;;;3.98;74.17;96251.77;105827;1254;60517;-77
2023/03/08 03:07:51;;;;;;;20.50;12.30;;;;;;;3.95;74.32;96254.00;105881;1254;60539;-77
2023/03/08 03:10:17;;;;;;;19.30;11.40;;;;;;;3.94;74.20;96247.84;105905;1257;60460;-78
2023/03/08 03:12:44;;;;;;;19.30;10.70;;;;;;;3.91;74.37;96246.52;105925;1258;60466;-78
2023/03/08 03:15:10;;;;;;;18.40;9.80;;;;;;;3.89;74.21;96246.38;105933;1259;60517;-78
2023/03/08 03:17:37;;;;;;;17.00;9.00;;;;;;;3.88;74.29;96250.67;105902;1259;60424;-78
2023/03/08 03:20:10;;;;;;;21.70;11.50;;;;;;;3.86;74.18;96251.23;105933;1254;60469;-78
2023/03/08 03:22:37;;;;;;;21.50;11.30;;;;;;;3.84;74.28;96258.94;105915;1254;70278;-78
2023/03/08 03:25:04;;;;;;;16.40;9.50;;;;;;;3.82;74.12;96264.27;105975;1257;60434;-78
2023/03/08 03:27:30;;;;;;;21.70;10.10;;;;;;;3.82;74.12;96265.29;105903;1255;60553;-78
2023/03/08 03:29:57;;;;;;;17.50;10.80;;;;;;;3.80;74.08;96274.67;105838;1256;60415;-78
2023/03/08 03:32:23;;;;;;;19.50;9.80;;;;;;;3.79;74.00;96274.59;105865;1255;60426;-78
2023/03/08 03:34:50;;;;;;;24.10;13.60;;;;;;;3.77;73.98;96274.02;105846;1256;60375;-78
2023/03/08 03:37:16;;;;;;;23.90;12.20;;;;;;;3.74;74.05;96274.81;105858;1256;60506;-78
2023/03/08 03:39:43;;;;;;;51.00;25.70;;;;;;;3.72;73.96;96277.68;105846;1256;60463;-78
2023/03/08 03:42:10;;;;;;;17.30;10.90;;;;;;;3.68;73.84;96280.45;105814;1256;60456;-78
2023/03/08 03:44:36;;;;;;;18.10;9.30;;;;;;;3.65;73.58;96282.38;105892;1255;72627;-78
2023/03/08 03:47:03;;;;;;;21.60;10.90;;;;;;;3.63;73.50;96288.92;105811;1257;60415;-78
2023/03/08 03:49:30;;;;;;;20.80;10.80;;;;;;;3.60;73.61;96292.27;105859;1254;71420;-78
2023/03/08 03:51:56;;;;;;;17.60;10.20;;;;;;;3.58;73.26;96299.23;105826;1257;60523;-78
2023/03/08 03:54:22;;;;;;;16.10;9.70;;;;;;;3.58;73.25;96310.38;105893;1259;60364;-78
2023/03/08 03:56:49;;;;;;;16.30;9.00;;;;;;;3.55;73.29;96311.95;105894;1258;60382;-78
2023/03/08 03:59:16;;;;;;;20.60;10.20;;;;;;;3.51;73.24;96317.77;105903;1256;60572;-78
2023/03/08 04:01:42;;;;;;;19.10;8.80;;;;;;;3.47;73.07;96320.58;105929;1261;60451;-78
2023/03/08 04:04:09;;;;;;;15.40;9.50;;;;;;;3.44;73.09;96323.77;105826;1257;60488;-78
2023/03/08 04:06:36;;;;;;;16.90;10.40;;;;;;;3.43;73.05;96326.44;106061;1254;60398;-78
2023/03/08 04:09:04;;;;;;;20.40;11.00;;;;;;;3.42;73.11;96330.92;105983;1259;74987;-78
2023/03/08 04:11:33;;;;;;;17.20;12.20;;;;;;;3.40;72.92;96330.17;105846;1254;71110;-78
2023/03/08 04:14:00;;;;;;;15.30;9.40;;;;;;;3.38;72.99;96337.90;105891;1257;73780;-78
2023/03/08 04:16:28;;;;;;;15.40;8.20;;;;;;;3.36;72.90;96345.09;105888;1257;60421;-78
2023/03/08 04:18:56;;;;;;;15.30;7.70;;;;;;;3.37;73.00;96349.05;105894;1258;60462;-77
2023/03/08 04:21:22;;;;;;;15.80;9.20;;;;;;;3.37;72.79;96354.09;105879;1255;72720;-78
2023/03/08 04:23:49;;;;;;;16.10;8.20;;;;;;;3.39;72.76;96357.77;105846;1256;61312;-78
2023/03/08 04:26:15;;;;;;;14.80;8.40;;;;;;;3.42;72.64;96360.66;105892;1259;60752;-78
2023/03/08 04:28:42;;;;;;;17.30;14.80;;;;;;;3.48;72.46;96363.35;105910;1257;60546;-77
2023/03/08 04:31:12;;;;;;;36.80;33.10;;;;;;;3.53;72.52;96364.48;105874;1257;60431;-77
2023/03/08 04:33:39;;;;;;;17.70;12.20;;;;;;;3.56;72.48;96363.58;105865;1255;73701;-77
2023/03/08 04:36:05;;;;;;;17.10;8.10;;;;;;;3.58;72.19;96362.45;105923;1257;60364;-77
2023/03/08 04:38:35;;;;;;;12.00;7.70;;;;;;;3.58;72.16;96365.13;105882;1257;60456;-77
2023/03/08 04:41:04;;;;;;;20.40;8.70;;;;;;;3.56;72.19;96368.08;105911;1257;60339;-77
2023/03/08 04:43:31;;;;;;;;;;;;;;;3.54;72.32;96370.23;105733;1256;60472;-76
2023/03/08 04:45:59;;;;;;;16.60;7.80;;;;;;;3.50;72.28;96372.08;105873;1256;72498;-77
2023/03/08 04:48:25;;;;;;;17.70;9.20;;;;;;;3.46;72.18;96372.05;105822;1256;69923;-77
2023/03/08 04:50:57;;;;;;;16.60;7.60;;;;;;;3.44;72.16;96371.58;105818;1256;60553;-77
2023/03/08 04:53:23;;;;;;;15.30;8.10;;;;;;;3.42;72.35;96376.46;105807;1257;60435;-77
2023/03/08 04:55:50;;;;;;;13.60;7.30;;;;;;;3.41;72.40;96375.64;105824;1260;59237;-78
2023/03/08 04:58:16;;;;;;;16.60;8.40;;;;;;;3.39;72.42;96372.81;105818;1256;73866;-77
2023/03/08 05:00:43;;;;;;;17.40;9.30;;;;;;;3.36;72.51;96375.67;105851;1256;70973;-77
2023/03/08 05:03:09;;;;;;;15.40;8.30;;;;;;;3.33;72.65;96380.45;105764;1256;60474;-77
2023/03/08 05:05:36;;;;;;;19.30;9.30;;;;;;;3.33;72.71;96384.25;105852;1260;60257;-77
2023/03/08 05:08:04;;;;;;;17.90;9.80;;;;;;;3.33;72.88;96381.14;105841;1256;60431;-78
2023/03/08 05:10:31;;;;;;;23.70;9.20;;;;;;;3.37;72.88;96381.51;105925;1258;73703;-77
2023/03/08 05:12:57;;;;;;;20.70;10.70;;;;;;;3.39;73.24;96382.13;106052;1256;70664;-77
2023/03/08 05:15:23;;;;;;;14.80;8.90;;;;;;;3.40;73.35;96383.36;105828;1256;60509;-77
2023/03/08 05:17:50;;;;;;;17.30;9.70;;;;;;;3.43;73.38;96384.81;105908;1260;61285;-77
2023/03/08 05:20:17;;;;;;;19.00;9.30;;;;;;;3.45;73.56;96386.73;105958;1259;60528;-80
2023/03/08 05:22:43;;;;;;;16.20;10.10;;;;;;;3.47;73.55;96391.91;105946;1256;61189;-77
2023/03/08 05:25:09;;;;;;;16.60;9.80;;;;;;;3.49;73.64;96391.79;105850;1256;60489;-78
2023/03/08 05:27:36;;;;;;;17.20;9.50;;;;;;;3.50;73.65;96397.79;105853;1259;60996;-78
2023/03/08 05:30:03;;;;;;;20.10;8.90;;;;;;;3.52;73.61;96398.81;105852;1256;60544;-78
2023/03/08 05:32:30;;;;;;;17.90;9.10;;;;;;;3.53;73.36;96405.39;105881;1260;60439;-78
2023/03/08 05:34:56;;;;;;;17.60;9.20;;;;;;;3.54;73.57;96408.02;105874;1256;73273;-78
2023/03/08 05:37:26;;;;;;;17.20;9.40;;;;;;;3.55;73.56;96406.23;105864;1260;60578;-78
2023/03/08 05:39:52;;;;;;;18.00;9.00;;;;;;;3.54;73.66;96407.90;105864;1261;72521;-78
2023/03/08 05:42:19;;;;;;;18.70;10.30;;;;;;;3.56;73.40;96408.64;105820;1260;61166;-78
2023/03/08 05:44:45;;;;;;;17.50;8.90;;;;;;;3.58;73.40;96407.61;105885;1255;60431;-78
2023/03/08 05:47:12;;;;;;;16.90;9.20;;;;;;;3.59;73.18;96408.05;105900;1254;60539;-78
2023/03/08 05:49:38;;;;;;;16.20;9.10;;;;;;;3.62;73.18;96408.89;105882;1257;60329;-78
2023/03/08 05:52:05;;;;;;;19.00;9.00;;;;;;;3.63;72.96;96413.38;105874;1256;60551;-78
2023/03/08 05:54:31;;;;;;;28.30;11.50;;;;;;;3.65;73.04;96414.65;105830;1260;60423;-78
2023/03/08 05:56:57;;;;;;;14.50;9.00;;;;;;;3.68;72.78;96421.90;105873;1260;60446;-78
2023/03/08 05:59:25;;;;;;;14.20;8.00;;;;;;;3.69;72.71;96425.59;105827;1256;60541;-78
2023/03/08 06:01:52;;;;;;;18.10;8.80;;;;;;;3.73;72.80;96421.75;105825;1260;71298;-77
2023/03/08 06:04:18;;;;;;;14.90;8.80;;;;;;;3.76;72.87;96427.26;105874;1259;60579;-78
2023/03/08 06:06:44;;;;;;;15.20;8.00;;;;;;;3.79;71.98;96432.23;105848;1257;60509;-78
2023/03/08 06:09:11;;;;;;;17.90;10.30;;;;;;;3.81;72.03;96434.75;105900;1256;60418;-78
2023/03/08 06:11:37;;;;;;;11.30;7.60;;;;;;;3.86;72.08;96441.54;105883;1255;61141;-77
2023/03/08 06:14:03;;;;;;;15.00;9.20;;;;;;;3.88;71.76;96436.27;105835;1257;60449;-78
2023/03/08 06:16:30;;;;;;;17.70;8.00;;;;;;;3.92;71.88;96436.09;105909;1256;60554;-78
2023/03/08 06:18:56;;;;;;;15.50;7.60;;;;;;;3.96;71.35;96430.39;105867;1257;61520;-78
2023/03/08 06:21:23;;;;;;;15.80;8.20;;;;;;;4.00;71.07;96430.80;105916;1257;60514;-78
2023/03/08 06:23:49;;;;;;;19.40;8.70;;;;;;;4.04;70.52;96432.48;105868;1258;60623;-78
2023/03/08 06:26:15;;;;;;;15.80;7.30;;;;;;;4.06;70.30;96434.46;106028;1256;60545;-78
2023/03/08 06:28:42;;;;;;;16.50;9.20;;;;;;;4.09;70.19;96443.23;105926;1256;60518;-78
2023/03/08 06:31:12;;;;;;;12.60;7.80;;;;;;;4.13;70.31;96447.25;105924;1261;60508;-78
2023/03/08 06:33:39;;;;;;;16.50;9.10;;;;;;;4.14;70.10;96447.14;106294;1261;60368;-76
2023/03/08 06:36:07;;;;;;;16.50;8.60;;;;;;;4.17;70.42;96452.63;106050;1256;60546;-77
2023/03/08 06:38:35;;;;;;;16.60;8.80;;;;;;;4.20;70.53;96453.06;106189;1261;69950;-77
2023/03/08 06:41:02;;;;;;;15.20;8.40;;;;;;;4.21;70.26;96453.37;106057;1256;71490;-77
2023/03/08 06:43:28;;;;;;;14.60;8.00;;;;;;;4.24;70.20;96459.14;105959;1260;60355;-77
2023/03/08 06:45:55;;;;;;;19.60;9.00;;;;;;;4.25;69.88;96446.80;105937;1259;59280;-77
2023/03/08 06:48:21;;;;;;;19.30;10.50;;;;;;;4.29;69.59;96443.73;106254;1260;59246;-77
2023/03/08 06:50:48;;;;;;;16.70;10.00;;;;;;;4.31;69.07;96442.96;106158;1260;60427;-77
2023/03/08 06:53:14;;;;;;;21.70;10.90;;;;;;;4.36;69.13;96453.50;106245;1256;61019;-77
2023/03/08 06:55:41;;;;;;;16.70;8.60;;;;;;;4.41;69.12;96456.46;106391;1261;60077;-77
2023/03/08 06:58:07;;;;;;;17.60;8.70;;;;;;;4.46;69.01;96452.36;106165;1261;60363;-78
2023/03/08 07:00:34;;;;;;;13.40;8.40;;;;;;;4.54;69.43;96455.58;106306;1260;60445;-77
2023/03/08 07:03:00;;;;;;;15.10;8.80;;;;;;;4.62;69.19;96461.11;106400;1256;60527;-78
2023/03/08 07:05:27;;;;;;;15.60;8.70;;;;;;;4.67;69.08;96478.56;106289;1260;59165;-78
2023/03/08 07:07:53;;;;;;;12.90;7.50;;;;;;;4.68;68.82;96485.95;106436;1256;60563;-77
2023/03/08 07:10:20;;;;;;;17.60;7.80;;;;;;;4.73;68.42;96504.66;106347;1258;60432;-78
2023/03/08 07:12:49;;;;;;;11.70;5.60;;;;;;;4.77;68.86;96514.17;105991;1259;60465;-78
2023/03/08 07:15:17;;;;;;;16.50;8.10;;;;;;;4.84;68.99;96517.36;106004;1256;72261;-78
2023/03/08 07:17:45;;;;;;;12.60;6.80;;;;;;;4.86;68.76;96519.22;106070;1256;71433;-78
2023/03/08 07:20:12;;;;;;;17.90;8.30;;;;;;;4.92;68.36;96522.02;106098;1256;60466;-79
2023/03/08 07:22:40;;;;;;;12.70;7.40;;;;;;;5.08;68.31;96514.77;105977;1256;59171;-78
2023/03/08 07:25:07;;;;;;;21.50;9.70;;;;;;;5.73;67.74;96509.27;106230;1259;73746;-78
2023/03/08 07:27:34;;;;;;;16.70;8.40;;;;;;;6.59;65.66;96519.41;106242;1256;71137;-78
2023/03/08 07:30:00;;;;;;;12.50;7.90;;;;;;;7.32;65.11;96520.98;106282;1254;60408;-78
2023/03/08 07:32:27;;;;;;;12.50;8.60;;;;;;;8.15;63.83;96523.61;106286;1260;60549;-78
2023/03/08 07:34:54;;;;;;;16.60;9.30;;;;;;;9.02;61.53;96526.90;107240;1256;60407;-76
2023/03/08 07:37:21;;;;;;;12.40;8.20;;;;;;;9.47;58.98;96532.63;106268;1256;73778;-77
2023/03/08 07:39:48;;;;;;;12.20;7.70;;;;;;;9.43;56.49;96527.23;106201;1259;70072;-77
2023/03/08 07:42:14;;;;;;;17.30;8.20;;;;;;;9.89;57.65;96531.98;106291;1256;60343;-77
2023/03/08 07:44:40;;;;;;;13.20;7.90;;;;;;;10.42;57.35;96530.95;106412;1256;59490;-78
2023/03/08 07:47:07;;;;;;;12.00;7.70;;;;;;;11.09;55.39;96537.21;106491;1256;60345;-77
2023/03/08 07:49:33;;;;;;;7.70;4.80;;;;;;;10.48;52.00;96538.79;108524;1256;58455;-77
2023/03/08 07:52:00;;;;;;;16.70;7.90;;;;;;;9.89;52.23;96550.05;106825;1261;59484;-77
2023/03/08 07:54:26;;;;;;;14.90;7.00;;;;;;;10.18;50.85;96558.91;106259;1254;60454;-77
2023/03/08 07:56:53;;;;;;;10.70;6.80;;;;;;;9.81;51.33;96551.64;106442;1256;60464;-77
2023/03/08 07:59:19;;;;;;;13.80;8.20;;;;;;;10.16;51.70;96548.83;106150;1256;60474;-76
2023/03/08 08:01:46;;;;;;;12.80;7.90;;;;;;;10.81;49.78;96551.58;106148;1260;60447;-76
2023/03/08 08:04:13;;;;;;;19.40;10.00;;;;;;;11.35;49.89;96555.43;106014;1260;69892;-76
2023/03/08 08:06:39;;;;;;;13.70;9.50;;;;;;;11.28;48.79;96560.77;106171;1260;60467;-76
2023/03/08 08:09:07;;;;;;;10.10;7.00;;;;;;;11.25;47.57;96556.39;105961;1261;60445;-76
2023/03/08 08:11:33;;;;;;;16.40;8.80;;;;;;;10.56;49.01;96551.17;106085;1256;60425;-77
2023/03/08 08:14:00;;;;;;;13.30;10.10;;;;;;;10.89;49.29;96552.63;105950;1258;74787;-77
2023/03/08 08:16:27;;;;;;;10.40;7.70;;;;;;;11.57;48.49;96554.23;106104;1259;71226;-77
2023/03/08 08:18:53;;;;;;;10.60;7.70;;;;;;;12.35;47.21;96553.40;106026;1256;60523;-76
2023/03/08 08:21:20;;;;;;;11.30;7.40;;;;;;;12.53;45.12;96545.21;105924;1256;60352;-77
2023/03/08 08:23:46;;;;;;;10.50;7.50;;;;;;;12.93;44.80;96544.91;105928;1256;59179;-77
2023/03/08 08:26:18;;;;;;;8.80;6.80;;;;;;;13.66;44.07;96549.05;105988;1258;60490;-77
2023/03/08 08:28:45;;;;;;;9.70;6.90;;;;;;;14.31;42.51;96540.73;106142;1256;71085;-77
2023/03/08 08:31:14;;;;;;;10.20;7.70;;;;;;;14.96;41.80;96541.11;106091;1256;71497;-78
2023/03/08 08:33:41;;;;;;;15.90;8.80;;;;;;;15.41;37.83;96536.36;106047;1255;60517;-77
2023/03/08 08:36:10;;;;;;;11.00;7.90;;;;;;;15.55;37.59;96546.75;106116;1260;60277;-77
2023/03/08 08:38:37;;;;;;;14.60;8.50;;;;;;;16.18;37.83;96544.56;106802;1256;73343;-77
2023/03/08 08:41:06;;;;;;;16.50;10.90;;;;;;;16.73;35.54;96542.23;105934;1259;71985;-78
2023/03/08 08:43:33;;;;;;;19.60;13.60;;;;;;;16.59;34.69;96543.63;105721;1256;71461;-77
2023/03/08 08:46:00;;;;;;;11.40;8.20;;;;;;;16.74;33.59;96537.50;105953;1259;60417;-77
2023/03/08 08:48:26;;;;;;;12.60;8.50;;;;;;;16.70;32.87;96543.11;105988;1261;60407;-77
2023/03/08 08:50:53;;;;;;;14.10;9.90;;;;;;;16.87;33.43;96539.13;106008;1256;72546;-77
2023/03/08 08:53:20;;;;;;;11.40;8.20;;;;;;;17.32;33.54;96536.55;106040;1260;60518;-77
2023/03/08 08:55:46;;;;;;;11.90;8.10;;;;;;;17.48;32.13;96533.20;106022;1258;71658;-77
2023/03/08 08:58:13;;;;;;;8.90;6.60;;;;;;;17.40;33.45;96528.73;106090;1259;60451;-77
2023/03/08 09:00:39;;;;;;;15.40;10.00;;;;;;;17.63;32.78;96531.09;105970;1256;60372;-77
2023/03/08 09:03:06;;;;;;;15.60;9.90;;;;;;;18.45;32.83;96529.02;106029;1261;60422;-77
2023/03/08 09:05:33;;;;;;;9.60;8.00;;;;;;;17.64;32.46;96527.09;106111;1256;71216;-77
2023/03/08 09:07:59;;;;;;;13.10;9.60;;;;;;;15.80;34.09;96526.20;106109;1256;71358;-77
2023/03/08 09:10:27;;;;;;;11.70;8.00;;;;;;;14.08;35.39;96528.16;106020;1256;60424;-76
2023/03/08 09:12:54;;;;;;;12.80;8.60;;;;;;;12.98;37.28;96528.94;106202;1259;60334;-77
2023/03/08 09:15:21;;;;;;;17.30;10.10;;;;;;;11.96;38.11;96529.81;106015;1257;73965;-76
2023/03/08 09:17:48;;;;;;;12.10;8.20;;;;;;;11.01;39.81;96532.57;106005;1260;72067;-77
2023/03/08 09:20:14;;;;;;;15.60;7.90;;;;;;;10.29;41.75;96524.89;105971;1257;60999;-77
2023/03/08 09:22:41;;;;;;;10.00;5.70;;;;;;;9.88;42.81;96528.45;105837;1262;60518;-77
2023/03/08 09:25:08;;;;;;;14.60;7.60;;;;;;;9.65;43.27;96530.69;105909;1256;60574;-77
2023/03/08 09:27:35;;;;;;;12.50;7.40;;;;;;;9.25;43.92;96522.05;106094;1260;72594;-80
2023/03/08 09:30:03;;;;;;;11.20;7.10;;;;;;;9.00;44.42;96521.13;105996;1259;69946;-77
2023/03/08 09:32:32;;;;;;;12.00;7.80;;;;;;;8.74;44.84;96518.05;105947;1257;71488;-78
2023/03/08 09:34:58;;;;;;;13.70;8.00;;;;;;;8.58;45.11;96524.61;106014;1260;60309;-78
2023/03/08 09:37:24;;;;;;;15.10;7.80;;;;;;;8.52;45.62;96521.38;106138;1260;60321;-78
2023/03/08 09:39:51;;;;;;;8.50;6.30;;;;;;;8.45;45.59;96523.51;105862;1256;60443;-77
2023/03/08 09:42:29;;;;;;;12.10;7.10;;;;;;;8.45;45.70;96524.44;105873;1261;60911;-78
2023/03/08 09:45:02;;;;;;;9.70;6.30;;;;;;;8.47;45.68;96523.10;106099;1258;72212;-78
2023/03/08 09:47:38;;;;;;;12.30;6.30;;;;;;;8.45;45.02;96523.45;106137;1256;59544;-78
2023/03/08 09:50:14;;;;;;;17.10;7.20;;;;;;;8.50;45.34;96526.48;105972;1257;60416;-77
2023/03/08 09:52:44;;;;;;;13.10;7.10;;;;;;;8.56;45.37;96519.34;106570;1257;73761;-77
2023/03/08 09:55:29;;;;;;;20.00;10.50;;;;;;;8.65;45.53;96521.09;106292;1260;69937;-78
2023/03/08 09:58:18;;;;;;;37.90;13.20;;;;;;;8.71;45.40;96517.67;106032;1261;71090;-77
2023/03/08 10:00:45;;;;;;;17.90;8.00;;;;;;;8.76;45.60;96509.39;106048;1261;60522;-78
2023/03/08 10:03:37;;;;;;;17.60;9.70;;;;;;;8.90;45.20;96507.64;105992;1259;60439;-78
2023/03/08 10:06:10;;;;;;;10.30;7.00;;;;;;;9.02;44.77;96502.17;106083;1256;73908;-77
2023/03/08 10:08:54;;;;;;;57.10;28.50;;;;;;;9.07;44.85;96499.83;105958;1261;71539;-77
2023/03/08 10:11:40;;;;;;;18.80;9.00;;;;;;;9.08;44.69;96491.77;106124;1256;73053;-78
2023/03/08 10:14:17;;;;;;;30.90;14.50;;;;;;;9.13;44.78;96487.38;106053;1257;61144;-78
2023/03/08 10:16:47;;;;;;;14.00;6.90;;;;;;;9.14;43.99;96482.11;106162;1256;61194;-78
2023/03/08 10:19:15;;;;;;;11.10;5.50;;;;;;;9.17;44.51;96477.02;106413;1256;73157;-78
2023/03/08 10:21:42;;;;;;;11.60;6.20;;;;;;;9.30;44.79;96473.21;106057;1260;72343;-78
2023/03/08 10:24:25;;;;;;;15.10;7.40;;;;;;;9.47;43.92;96474.41;106052;1261;72303;-78
2023/03/08 10:27:01;;;;;;;14.10;6.80;;;;;;;9.54;43.79;96466.94;106133;1261;60419;-77
2023/03/08 10:29:28;;;;;;;15.60;8.50;;;;;;;9.55;43.07;96465.76;106339;1257;60438;-78
2023/03/08 10:31:54;;;;;;;10.00;5.60;;;;;;;9.70;43.31;96474.08;105903;1256;60585;-78
2023/03/08 10:34:23;;;;;;;16.50;7.00;;;;;;;9.67;42.83;96473.30;106045;1256;60506;-78
2023/03/08 10:36:52;;;;;;;12.30;6.10;;;;;;;9.55;42.98;96467.16;106372;1259;72624;-77
2023/03/08 10:39:19;;;;;;;14.90;5.80;;;;;;;9.48;43.16;96471.80;106101;1260;60538;-76
2023/03/08 10:41:51;;;;;;;13.30;5.00;;;;;;;9.47;42.56;96472.90;106091;1256;61181;-76
2023/03/08 10:44:39;;;;;;;10.20;5.20;;;;;;;9.39;42.34;96469.27;105981;1261;73765;-77
2023/03/08 10:47:20;;;;;;;9.50;5.40;;;;;;;9.31;42.62;96472.32;106111;1260;70974;-76
2023/03/08 10:49:47;;;;;;;9.30;5.30;;;;;;;9.31;42.66;96470.33;106290;1256;71798;-76
2023/03/08 10:52:24;;;;;;;10.00;5.70;;;;;;;9.31;42.57;96474.27;106025;1261;60565;-76
2023/03/08 10:55:04;;;;;;;12.30;7.10;;;;;;;9.49;42.57;96473.11;105930;1256;60440;-77
2023/03/08 10:57:31;;;;;;;9.40;5.20;;;;;;;9.48;42.64;96474.92;106099;1256;73377;-77
2023/03/08 11:00:16;;;;;;;8.70;4.80;;;;;;;9.49;42.75;96473.65;106070;1260;71676;-77
2023/03/08 11:02:44;;;;;;;11.40;5.80;;;;;;;9.59;43.01;96471.66;106008;1260;73589;-78
2023/03/08 11:05:27;;;;;;;9.60;5.60;;;;;;;9.65;42.53;96477.46;106041;1256;60429;-77
2023/03/08 11:07:57;;;;;;;9.90;6.80;;;;;;;9.50;41.90;96477.69;106102;1256;60503;-78
2023/03/08 11:10:28;;;;;;;12.60;6.30;;;;;;;9.43;42.93;96480.42;107881;1258;73427;-78
2023/03/08 11:13:05;;;;;;;12.60;7.30;;;;;;;9.37;42.71;96477.48;106192;1256;72214;-78
2023/03/08 11:15:33;;;;;;;15.40;8.80;;;;;;;9.20;42.79;96473.54;106171;1259;73284;-77
2023/03/08 11:18:23;;;;;;;14.00;6.80;;;;;;;9.06;43.08;96469.91;106385;1256;60497;-77
2023/03/08 11:20:57;;;;;;;205.60;106.50;;;;;;;8.94;43.44;96469.19;106054;1256;60480;-78
2023/03/08 11:23:33;;;;;;;48.00;19.30;;;;;;;8.90;43.76;96469.11;106019;1260;72884;-77
2023/03/08 11:26:00;;;;;;;176.80;89.00;;;;;;;8.83;44.04;96469.21;106313;1256;71027;-77